sensor_id;sensor_type;location;lat;lon;timestamp;pressure;altitude;pressure_sealevel;temperature;humidity
73103;BME280;61294;65.988;29.172;2023-08-30T00:00:15;97660.69;;;8.39;100.00
73103;BME280;61294;65.988;29.172;2023-08-30T00:02:47;97647.66;;;8.33;100.00
73103;BME280;61294;65.988;29.172;2023-08-30T00:05:13;97664.09;;;8.49;100.00
73103;BME280;61294;65.988;29.172;2023-08-30T00:07:40;97670.16;;;8.52;100.00
73103;BME280;61294;65.988;29.172;2023-08-30T00:10:07;97678.00;;;8.58;100.00
73103;BME280;61294;65.988;29.172;2023-08-30T00:12:33;97657.16;;;8.44;100.00
73103;BME280;61294;65.988;29.172;2023-08-30T00:14:59;97684.97;;;8.61;100.00
73103;BME280;61294;65.988;29.172;2023-08-30T00:17:25;97680.56;;;8.63;100.00
73103;BME280;61294;65.988;29.172;2023-08-30T00:19:51;97664.91;;;8.55;100.00
73103;BME280;61294;65.988;29.172;2023-08-30T00:22:18;97666.56;;;8.62;100.00
73103;BME280;61294;65.988;29.172;2023-08-30T00:24:44;97685.72;;;8.71;100.00
73103;BME280;61294;65.988;29.172;2023-08-30T00:27:11;97675.22;;;8.69;100.00
73103;BME280;61294;65.988;29.172;2023-08-30T00:29:37;97658.69;;;8.62;100.00
73103;BME280;61294;65.988;29.172;2023-08-30T00:32:03;97682.13;;;8.78;100.00
73103;BME280;61294;65.988;29.172;2023-08-30T00:34:29;97660.38;;;8.68;100.00
73103;BME280;61294;65.988;29.172;2023-08-30T00:36:55;97689.91;;;8.84;100.00
73103;BME280;61294;65.988;29.172;2023-08-30T00:39:21;97699.53;;;8.85;100.00
73103;BME280;61294;65.988;29.172;2023-08-30T00:41:46;97688.13;;;8.86;100.00
73103;BME280;61294;65.988;29.172;2023-08-30T00:44:12;97673.34;;;8.79;100.00
73103;BME280;61294;65.988;29.172;2023-08-30T00:46:38;97693.34;;;8.91;100.00
73103;BME280;61294;65.988;29.172;2023-08-30T00:49:04;97695.94;;;8.92;100.00
73103;BME280;61294;65.988;29.172;2023-08-30T00:51:31;97680.22;;;8.88;100.00
73103;BME280;61294;65.988;29.172;2023-08-30T00:53:59;97695.91;;;8.95;100.00
73103;BME280;61294;65.988;29.172;2023-08-30T00:56:27;97696.72;;;8.97;100.00
73103;BME280;61294;65.988;29.172;2023-08-30T00:58:53;97673.31;;;8.84;100.00
73103;BME280;61294;65.988;29.172;2023-08-30T01:01:19;97694.94;;;9.01;100.00
73103;BME280;61294;65.988;29.172;2023-08-30T01:03:45;97707.22;;;8.99;100.00
73103;BME280;61294;65.988;29.172;2023-08-30T01:06:11;97648.97;;;8.68;100.00
73103;BME280;61294;65.988;29.172;2023-08-30T01:08:39;97705.38;;;9.06;100.00
73103;BME280;61294;65.988;29.172;2023-08-30T01:11:22;97713.25;;;9.07;100.00
73103;BME280;61294;65.988;29.172;2023-08-30T01:14:21;97684.66;;;8.84;100.00
73103;BME280;61294;65.988;29.172;2023-08-30T01:16:48;97710.59;;;9.09;100.00
73103;BME280;61294;65.988;29.172;2023-08-30T01:22:13;97698.28;;;9.12;100.00
73103;BME280;61294;65.988;29.172;2023-08-30T01:27:41;97720.09;;;9.18;100.00
73103;BME280;61294;65.988;29.172;2023-08-30T01:30:08;97664.44;;;8.91;100.00
73103;BME280;61294;65.988;29.172;2023-08-30T01:32:36;97720.06;;;9.22;100.00
73103;BME280;61294;65.988;29.172;2023-08-30T01:35:04;97697.44;;;9.09;100.00
73103;BME280;61294;65.988;29.172;2023-08-30T01:37:32;97723.53;;;9.24;100.00
73103;BME280;61294;65.988;29.172;2023-08-30T01:39:59;97729.56;;;9.31;100.00
73103;BME280;61294;65.988;29.172;2023-08-30T01:42:27;97713.97;;;9.17;100.00
73103;BME280;61294;65.988;29.172;2023-08-30T01:44:55;97718.19;;;9.29;100.00
73103;BME280;61294;65.988;29.172;2023-08-30T01:47:26;97702.53;;;9.21;100.00
73103;BME280;61294;65.988;29.172;2023-08-30T01:49:57;97711.25;;;9.26;100.00
73103;BME280;61294;65.988;29.172;2023-08-30T01:52:24;97742.56;;;9.39;100.00
73103;BME280;61294;65.988;29.172;2023-08-30T01:54:51;97740.84;;;9.38;100.00
73103;BME280;61294;65.988;29.172;2023-08-30T01:57:19;97744.31;;;9.40;100.00
73103;BME280;61294;65.988;29.172;2023-08-30T01:59:45;97744.31;;;9.41;100.00
73103;BME280;61294;65.988;29.172;2023-08-30T02:02:11;97709.47;;;9.27;100.00
73103;BME280;61294;65.988;29.172;2023-08-30T02:04:36;97712.06;;;9.28;100.00
73103;BME280;61294;65.988;29.172;2023-08-30T02:07:04;97748.50;;;9.53;100.00
73103;BME280;61294;65.988;29.172;2023-08-30T02:09:39;97746.72;;;9.55;100.00
73103;BME280;61294;65.988;29.172;2023-08-30T02:12:10;97752.03;;;9.52;100.00
73103;BME280;61294;65.988;29.172;2023-08-30T02:14:39;97748.53;;;9.52;100.00
73103;BME280;61294;65.988;29.172;2023-08-30T02:17:07;97739.72;;;9.54;100.00
73103;BME280;61294;65.988;29.172;2023-08-30T02:19:34;97748.44;;;9.56;100.00
73103;BME280;61294;65.988;29.172;2023-08-30T02:22:00;97744.97;;;9.56;100.00
73103;BME280;61294;65.988;29.172;2023-08-30T02:24:25;97747.53;;;9.59;100.00
73103;BME280;61294;65.988;29.172;2023-08-30T02:26:51;97722.41;;;9.42;100.00
73103;BME280;61294;65.988;29.172;2023-08-30T02:29:18;97748.41;;;9.61;100.00
73103;BME280;61294;65.988;29.172;2023-08-30T02:31:44;97716.19;;;9.46;100.00
73103;BME280;61294;65.988;29.172;2023-08-30T02:34:10;97744.81;;;9.66;100.00
73103;BME280;61294;65.988;29.172;2023-08-30T02:36:35;97719.63;;;9.50;100.00
73103;BME280;61294;65.988;29.172;2023-08-30T02:39:01;97754.38;;;9.71;100.00
73103;BME280;61294;65.988;29.172;2023-08-30T02:41:27;97756.06;;;9.75;100.00
73103;BME280;61294;65.988;29.172;2023-08-30T02:43:53;97750.78;;;9.78;100.00
73103;BME280;61294;65.988;29.172;2023-08-30T02:46:18;97728.97;;;9.70;100.00
73103;BME280;61294;65.988;29.172;2023-08-30T02:48:44;97736.03;;;9.66;100.00
73103;BME280;61294;65.988;29.172;2023-08-30T02:51:10;97743.91;;;9.67;100.00
73103;BME280;61294;65.988;29.172;2023-08-30T02:53:35;97763.84;;;9.82;100.00
73103;BME280;61294;65.988;29.172;2023-08-30T02:56:01;97728.13;;;9.67;100.00
73103;BME280;61294;65.988;29.172;2023-08-30T02:58:27;97742.97;;;9.70;100.00
73103;BME280;61294;65.988;29.172;2023-08-30T03:00:53;97731.53;;;9.74;100.00
73103;BME280;61294;65.988;29.172;2023-08-30T03:03:18;97734.78;;;9.89;100.00
73103;BME280;61294;65.988;29.172;2023-08-30T03:05:44;97732.19;;;9.87;100.00
73103;BME280;61294;65.988;29.172;2023-08-30T03:08:10;97731.28;;;9.90;100.00
73103;BME280;61294;65.988;29.172;2023-08-30T03:10:35;97754.72;;;10.04;100.00
73103;BME280;61294;65.988;29.172;2023-08-30T03:13:01;97737.41;;;9.90;100.00
73103;BME280;61294;65.988;29.172;2023-08-30T03:15:27;97764.25;;;10.11;100.00
73103;BME280;61294;65.988;29.172;2023-08-30T03:17:52;97741.56;;;10.05;100.00
73103;BME280;61294;65.988;29.172;2023-08-30T03:20:18;97754.50;;;10.16;100.00
73103;BME280;61294;65.988;29.172;2023-08-30T03:22:44;97759.75;;;10.16;100.00
73103;BME280;61294;65.988;29.172;2023-08-30T03:25:10;97763.28;;;10.16;100.00
73103;BME280;61294;65.988;29.172;2023-08-30T03:27:35;97703.19;;;9.90;100.00
73103;BME280;61294;65.988;29.172;2023-08-30T03:30:02;97761.41;;;10.25;100.00
73103;BME280;61294;65.988;29.172;2023-08-30T03:32:28;97756.97;;;10.27;100.00
73103;BME280;61294;65.988;29.172;2023-08-30T03:34:54;97764.75;;;10.31;100.00
73103;BME280;61294;65.988;29.172;2023-08-30T03:37:19;97746.59;;;10.19;100.00
73103;BME280;61294;65.988;29.172;2023-08-30T03:39:45;97758.66;;;10.31;100.00
73103;BME280;61294;65.988;29.172;2023-08-30T03:42:11;97754.22;;;10.33;100.00
73103;BME280;61294;65.988;29.172;2023-08-30T03:44:37;97763.78;;;10.39;100.00
73103;BME280;61294;65.988;29.172;2023-08-30T03:47:04;97761.97;;;10.44;100.00
73103;BME280;61294;65.988;29.172;2023-08-30T03:49:30;97751.28;;;10.51;100.00
73103;BME280;61294;65.988;29.172;2023-08-30T03:51:55;97751.34;;;10.47;100.00
73103;BME280;61294;65.988;29.172;2023-08-30T03:54:21;97760.94;;;10.51;100.00
73103;BME280;61294;65.988;29.172;2023-08-30T03:56:47;97753.03;;;10.51;100.00
73103;BME280;61294;65.988;29.172;2023-08-30T03:59:13;97759.22;;;10.48;100.00
73103;BME280;61294;65.988;29.172;2023-08-30T04:01:38;97716.47;;;10.35;100.00
73103;BME280;61294;65.988;29.172;2023-08-30T04:04:04;97729.44;;;10.46;100.00
73103;BME280;61294;65.988;29.172;2023-08-30T04:06:31;97761.47;;;10.68;100.00
73103;BME280;61294;65.988;29.172;2023-08-30T04:08:57;97762.31;;;10.72;100.00
73103;BME280;61294;65.988;29.172;2023-08-30T04:11:23;97757.03;;;10.72;100.00
73103;BME280;61294;65.988;29.172;2023-08-30T04:13:49;97765.56;;;10.85;100.00
73103;BME280;61294;65.988;29.172;2023-08-30T04:16:14;97760.22;;;10.88;100.00
73103;BME280;61294;65.988;29.172;2023-08-30T04:18:40;97758.50;;;10.85;100.00
73103;BME280;61294;65.988;29.172;2023-08-30T04:21:06;97765.53;;;10.86;100.00
73103;BME280;61294;65.988;29.172;2023-08-30T04:23:34;97762.75;;;10.93;100.00
73103;BME280;61294;65.988;29.172;2023-08-30T04:25:59;97767.81;;;11.03;100.00
73103;BME280;61294;65.988;29.172;2023-08-30T04:28:25;97773.13;;;11.02;100.00
73103;BME280;61294;65.988;29.172;2023-08-30T04:30:56;97769.66;;;10.98;100.00
73103;BME280;61294;65.988;29.172;2023-08-30T04:33:25;97767.69;;;11.10;100.00
73103;BME280;61294;65.988;29.172;2023-08-30T04:35:52;97771.88;;;11.18;100.00
73103;BME280;61294;65.988;29.172;2023-08-30T04:38:18;97763.22;;;11.13;100.00
73103;BME280;61294;65.988;29.172;2023-08-30T04:40:45;97774.44;;;11.23;100.00
73103;BME280;61294;65.988;29.172;2023-08-30T04:43:10;97735.41;;;10.98;100.00
73103;BME280;61294;65.988;29.172;2023-08-30T04:45:36;97777.03;;;11.26;100.00
73103;BME280;61294;65.988;29.172;2023-08-30T04:48:02;97777.78;;;11.31;100.00
73103;BME280;61294;65.988;29.172;2023-08-30T04:50:28;97776.91;;;11.31;100.00
73103;BME280;61294;65.988;29.172;2023-08-30T04:52:54;97775.19;;;11.28;100.00
73103;BME280;61294;65.988;29.172;2023-08-30T04:55:19;97785.75;;;11.28;100.00
73103;BME280;61294;65.988;29.172;2023-08-30T04:57:45;97787.34;;;11.35;100.00
73103;BME280;61294;65.988;29.172;2023-08-30T05:00:13;97796.97;;;11.38;100.00
73103;BME280;61294;65.988;29.172;2023-08-30T05:02:39;97744.03;;;11.07;100.00
73103;BME280;61294;65.988;29.172;2023-08-30T05:05:07;97794.25;;;11.41;100.00
73103;BME280;61294;65.988;29.172;2023-08-30T05:07:33;97763.59;;;11.37;100.00
73103;BME280;61294;65.988;29.172;2023-08-30T05:09:59;97783.53;;;11.50;100.00
73103;BME280;61294;65.988;29.172;2023-08-30T05:12:24;97766.97;;;11.44;100.00
73103;BME280;61294;65.988;29.172;2023-08-30T05:14:50;97781.88;;;11.45;100.00
73103;BME280;61294;65.988;29.172;2023-08-30T05:17:16;97800.88;;;11.61;100.00
73103;BME280;61294;65.988;29.172;2023-08-30T05:19:41;97809.13;;;11.45;100.00
73103;BME280;61294;65.988;29.172;2023-08-30T05:22:07;97775.03;;;11.37;100.00
73103;BME280;61294;65.988;29.172;2023-08-30T05:24:33;97795.84;;;11.48;100.00
73103;BME280;61294;65.988;29.172;2023-08-30T05:26:59;97788.28;;;11.33;100.00
73103;BME280;61294;65.988;29.172;2023-08-30T05:29:25;97758.75;;;11.17;100.00
73103;BME280;61294;65.988;29.172;2023-08-30T05:31:50;97762.13;;;11.23;100.00
73103;BME280;61294;65.988;29.172;2023-08-30T05:34:16;97798.22;;;11.61;100.00
73103;BME280;61294;65.988;29.172;2023-08-30T05:36:42;97764.28;;;11.45;100.00
73103;BME280;61294;65.988;29.172;2023-08-30T05:39:07;97787.78;;;11.56;100.00
73103;BME280;61294;65.988;29.172;2023-08-30T05:41:33;97799.44;;;11.85;100.00
73103;BME280;61294;65.988;29.172;2023-08-30T05:43:59;97796.50;;;11.99;100.00
73103;BME280;61294;65.988;29.172;2023-08-30T05:46:24;97805.31;;;11.98;100.00
73103;BME280;61294;65.988;29.172;2023-08-30T05:48:50;97797.50;;;11.93;100.00
73103;BME280;61294;65.988;29.172;2023-08-30T05:51:16;97782.88;;;11.78;100.00
73103;BME280;61294;65.988;29.172;2023-08-30T05:53:41;97739.59;;;11.49;100.00
73103;BME280;61294;65.988;29.172;2023-08-30T05:56:07;97776.47;;;11.88;100.00
73103;BME280;61294;65.988;29.172;2023-08-30T05:58:33;97803.50;;;12.00;100.00
73103;BME280;61294;65.988;29.172;2023-08-30T06:00:59;97779.75;;;12.00;100.00
73103;BME280;61294;65.988;29.172;2023-08-30T06:03:25;97778.69;;;12.08;100.00
73103;BME280;61294;65.988;29.172;2023-08-30T06:05:52;97783.50;;;12.25;100.00
73103;BME280;61294;65.988;29.172;2023-08-30T06:08:18;97790.13;;;12.07;100.00
73103;BME280;61294;65.988;29.172;2023-08-30T06:10:44;97814.75;;;12.08;100.00
73103;BME280;61294;65.988;29.172;2023-08-30T06:13:09;97817.97;;;12.21;100.00
73103;BME280;61294;65.988;29.172;2023-08-30T06:15:36;97824.06;;;12.24;100.00
73103;BME280;61294;65.988;29.172;2023-08-30T06:18:03;97838.72;;;12.36;100.00
73103;BME280;61294;65.988;29.172;2023-08-30T06:20:29;97824.13;;;12.21;100.00
73103;BME280;61294;65.988;29.172;2023-08-30T06:22:57;97816.34;;;12.15;100.00
73103;BME280;61294;65.988;29.172;2023-08-30T06:25:23;97845.16;;;12.24;100.00
73103;BME280;61294;65.988;29.172;2023-08-30T06:27:57;97846.13;;;12.56;100.00
73103;BME280;61294;65.988;29.172;2023-08-30T06:30:27;97810.47;;;12.40;100.00
73103;BME280;61294;65.988;29.172;2023-08-30T06:32:55;97844.78;;;12.74;100.00
73103;BME280;61294;65.988;29.172;2023-08-30T06:35:21;97826.00;;;12.85;100.00
73103;BME280;61294;65.988;29.172;2023-08-30T06:37:47;97841.94;;;12.82;100.00
73103;BME280;61294;65.988;29.172;2023-08-30T06:40:12;97828.94;;;12.74;100.00
73103;BME280;61294;65.988;29.172;2023-08-30T06:42:38;97839.09;;;12.90;100.00
73103;BME280;61294;65.988;29.172;2023-08-30T06:45:05;97839.84;;;13.26;100.00
73103;BME280;61294;65.988;29.172;2023-08-30T06:47:31;97848.56;;;13.30;100.00
73103;BME280;61294;65.988;29.172;2023-08-30T06:49:57;97847.81;;;13.25;100.00
73103;BME280;61294;65.988;29.172;2023-08-30T06:52:24;97852.16;;;12.96;100.00
73103;BME280;61294;65.988;29.172;2023-08-30T06:54:50;97844.94;;;12.70;100.00
73103;BME280;61294;65.988;29.172;2023-08-30T06:57:15;97835.34;;;12.66;100.00
73103;BME280;61294;65.988;29.172;2023-08-30T06:59:41;97857.38;;;12.65;100.00
73103;BME280;61294;65.988;29.172;2023-08-30T07:02:08;97854.91;;;12.58;100.00
73103;BME280;61294;65.988;29.172;2023-08-30T07:04:33;97853.78;;;12.67;100.00
73103;BME280;61294;65.988;29.172;2023-08-30T07:06:59;97839.50;;;12.74;100.00
73103;BME280;61294;65.988;29.172;2023-08-30T07:09:25;97828.84;;;12.77;100.00
73103;BME280;61294;65.988;29.172;2023-08-30T07:11:58;97859.41;;;12.88;100.00
73103;BME280;61294;65.988;29.172;2023-08-30T07:14:24;97857.25;;;12.69;100.00
73103;BME280;61294;65.988;29.172;2023-08-30T07:16:49;97868.00;;;12.63;100.00
73103;BME280;61294;65.988;29.172;2023-08-30T07:19:16;97863.25;;;12.76;100.00
73103;BME280;61294;65.988;29.172;2023-08-30T07:21:45;97876.59;;;13.04;100.00
73103;BME280;61294;65.988;29.172;2023-08-30T07:24:11;97856.97;;;13.46;100.00
73103;BME280;61294;65.988;29.172;2023-08-30T07:26:36;97862.38;;;13.41;100.00
73103;BME280;61294;65.988;29.172;2023-08-30T07:29:02;97866.47;;;13.20;100.00
73103;BME280;61294;65.988;29.172;2023-08-30T07:31:31;97889.19;;;13.27;100.00
73103;BME280;61294;65.988;29.172;2023-08-30T07:33:57;97891.75;;;13.30;100.00
73103;BME280;61294;65.988;29.172;2023-08-30T07:36:27;97891.34;;;13.13;100.00
73103;BME280;61294;65.988;29.172;2023-08-30T07:38:53;97881.94;;;13.03;100.00
73103;BME280;61294;65.988;29.172;2023-08-30T07:41:19;97879.53;;;12.93;100.00
73103;BME280;61294;65.988;29.172;2023-08-30T07:43:45;97886.19;;;13.08;100.00
73103;BME280;61294;65.988;29.172;2023-08-30T07:46:10;97853.84;;;12.99;100.00
73103;BME280;61294;65.988;29.172;2023-08-30T07:48:36;97844.53;;;13.17;100.00
73103;BME280;61294;65.988;29.172;2023-08-30T07:51:02;97876.34;;;13.76;100.00
73103;BME280;61294;65.988;29.172;2023-08-30T07:53:27;97881.53;;;13.81;100.00
73103;BME280;61294;65.988;29.172;2023-08-30T07:55:53;97881.88;;;13.69;100.00
73103;BME280;61294;65.988;29.172;2023-08-30T07:58:19;97846.75;;;13.63;100.00
73103;BME280;61294;65.988;29.172;2023-08-30T08:00:44;97884.66;;;14.22;100.00
73103;BME280;61294;65.988;29.172;2023-08-30T08:03:10;97851.06;;;14.24;100.00
73103;BME280;61294;65.988;29.172;2023-08-30T08:05:36;97855.28;;;14.30;100.00
73103;BME280;61294;65.988;29.172;2023-08-30T08:08:03;97860.78;;;14.24;100.00
73103;BME280;61294;65.988;29.172;2023-08-30T08:10:32;97860.06;;;13.90;100.00
73103;BME280;61294;65.988;29.172;2023-08-30T08:13:00;97900.31;;;14.30;100.00
73103;BME280;61294;65.988;29.172;2023-08-30T08:15:26;97866.28;;;14.73;100.00
73103;BME280;61294;65.988;29.172;2023-08-30T08:17:52;97866.72;;;15.11;100.00
73103;BME280;61294;65.988;29.172;2023-08-30T08:20:17;97888.16;;;15.05;100.00
73103;BME280;61294;65.988;29.172;2023-08-30T08:22:43;97893.75;;;14.70;100.00
73103;BME280;61294;65.988;29.172;2023-08-30T08:25:10;97877.00;;;15.20;100.00
73103;BME280;61294;65.988;29.172;2023-08-30T08:27:36;97892.63;;;15.77;100.00
73103;BME280;61294;65.988;29.172;2023-08-30T08:30:03;97882.94;;;15.52;100.00
73103;BME280;61294;65.988;29.172;2023-08-30T08:32:29;97889.28;;;15.23;100.00
73103;BME280;61294;65.988;29.172;2023-08-30T08:34:56;97848.25;;;15.08;100.00
73103;BME280;61294;65.988;29.172;2023-08-30T08:37:22;97898.34;;;15.66;100.00
73103;BME280;61294;65.988;29.172;2023-08-30T08:39:48;97905.81;;;16.03;100.00
73103;BME280;61294;65.988;29.172;2023-08-30T08:42:18;97848.53;;;15.49;100.00
73103;BME280;61294;65.988;29.172;2023-08-30T08:44:47;97860.50;;;15.61;100.00
73103;BME280;61294;65.988;29.172;2023-08-30T08:47:20;97901.28;;;16.29;100.00
73103;BME280;61294;65.988;29.172;2023-08-30T08:49:50;97871.13;;;16.95;100.00
73103;BME280;61294;65.988;29.172;2023-08-30T08:52:16;97850.56;;;16.56;100.00
73103;BME280;61294;65.988;29.172;2023-08-30T08:54:43;97887.66;;;16.59;100.00
73103;BME280;61294;65.988;29.172;2023-08-30T08:57:09;97896.00;;;17.15;100.00
73103;BME280;61294;65.988;29.172;2023-08-30T08:59:35;97904.66;;;16.55;100.00
73103;BME280;61294;65.988;29.172;2023-08-30T09:02:01;97890.56;;;16.53;100.00
73103;BME280;61294;65.988;29.172;2023-08-30T09:04:30;97917.34;;;16.70;100.00
73103;BME280;61294;65.988;29.172;2023-08-30T09:06:56;97912.53;;;17.21;100.00
73103;BME280;61294;65.988;29.172;2023-08-30T09:09:22;97916.28;;;16.74;100.00
73103;BME280;61294;65.988;29.172;2023-08-30T09:11:48;97916.19;;;19.62;95.58
73103;BME280;61294;65.988;29.172;2023-08-30T09:14:14;97884.41;;;20.39;86.35
73103;BME280;61294;65.988;29.172;2023-08-30T09:16:39;97896.75;;;17.98;87.55
73103;BME280;61294;65.988;29.172;2023-08-30T09:19:05;97906.16;;;19.49;78.36
73103;BME280;61294;65.988;29.172;2023-08-30T09:21:32;97929.16;;;21.29;74.83
73103;BME280;61294;65.988;29.172;2023-08-30T09:24:06;97923.78;;;23.54;58.96
73103;BME280;61294;65.988;29.172;2023-08-30T09:26:33;97921.09;;;25.28;54.67
73103;BME280;61294;65.988;29.172;2023-08-30T09:29:08;97914.28;;;31.72;38.10
73103;BME280;61294;65.988;29.172;2023-08-30T09:31:38;97912.41;;;35.35;35.77
73103;BME280;61294;65.988;29.172;2023-08-30T09:34:06;97899.16;;;37.18;25.53
73103;BME280;61294;65.988;29.172;2023-08-30T09:36:39;97883.28;;;36.76;29.73
73103;BME280;61294;65.988;29.172;2023-08-30T09:39:07;97886.88;;;39.24;26.46
73103;BME280;61294;65.988;29.172;2023-08-30T09:41:35;97875.47;;;37.88;25.57
73103;BME280;61294;65.988;29.172;2023-08-30T09:44:16;97885.59;;;37.81;24.93
73103;BME280;61294;65.988;29.172;2023-08-30T09:49:08;97885.00;;;39.31;24.38
73103;BME280;61294;65.988;29.172;2023-08-30T09:51:35;97884.88;;;40.97;22.87
73103;BME280;61294;65.988;29.172;2023-08-30T09:54:04;97890.31;;;39.52;23.08
73103;BME280;61294;65.988;29.172;2023-08-30T09:56:32;97883.13;;;39.58;22.14
73103;BME280;61294;65.988;29.172;2023-08-30T09:59:02;97880.50;;;39.16;22.88
73103;BME280;61294;65.988;29.172;2023-08-30T10:01:29;97859.97;;;39.86;21.65
73103;BME280;61294;65.988;29.172;2023-08-30T10:03:56;97888.88;;;41.65;21.17
73103;BME280;61294;65.988;29.172;2023-08-30T10:06:24;97880.19;;;41.61;20.29
73103;BME280;61294;65.988;29.172;2023-08-30T10:08:51;97881.56;;;40.09;21.71
73103;BME280;61294;65.988;29.172;2023-08-30T10:11:18;97897.72;;;41.73;21.46
73103;BME280;61294;65.988;29.172;2023-08-30T10:13:44;97891.94;;;39.07;23.34
73103;BME280;61294;65.988;29.172;2023-08-30T10:16:19;97882.03;;;35.45;24.58
73103;BME280;61294;65.988;29.172;2023-08-30T10:18:54;97896.41;;;31.95;29.74
73103;BME280;61294;65.988;29.172;2023-08-30T10:21:26;97883.00;;;34.74;28.25
73103;BME280;61294;65.988;29.172;2023-08-30T10:23:54;97879.31;;;30.51;31.81
73103;BME280;61294;65.988;29.172;2023-08-30T10:26:24;97901.56;;;26.73;37.65
73103;BME280;61294;65.988;29.172;2023-08-30T10:28:53;97901.47;;;25.61;39.56
73103;BME280;61294;65.988;29.172;2023-08-30T10:31:19;97907.94;;;25.12;41.87
73103;BME280;61294;65.988;29.172;2023-08-30T10:33:49;97908.84;;;24.01;43.60
73103;BME280;61294;65.988;29.172;2023-08-30T10:36:25;97907.53;;;25.05;44.33
73103;BME280;61294;65.988;29.172;2023-08-30T10:38:52;97911.94;;;29.56;38.12
73103;BME280;61294;65.988;29.172;2023-08-30T10:41:23;97904.03;;;30.75;34.83
73103;BME280;61294;65.988;29.172;2023-08-30T10:43:51;97893.63;;;36.74;28.38
73103;BME280;61294;65.988;29.172;2023-08-30T10:46:28;97904.28;;;37.42;26.35
73103;BME280;61294;65.988;29.172;2023-08-30T10:48:54;97906.38;;;39.42;23.82
73103;BME280;61294;65.988;29.172;2023-08-30T10:51:21;97890.22;;;38.09;21.69
73103;BME280;61294;65.988;29.172;2023-08-30T10:53:59;97900.28;;;39.94;22.07
73103;BME280;61294;65.988;29.172;2023-08-30T10:56:31;97881.84;;;39.67;20.56
73103;BME280;61294;65.988;29.172;2023-08-30T10:59:02;97905.31;;;39.16;22.04
73103;BME280;61294;65.988;29.172;2023-08-30T11:01:28;97911.66;;;41.35;20.35
73103;BME280;61294;65.988;29.172;2023-08-30T11:03:55;97894.94;;;34.50;24.85
73103;BME280;61294;65.988;29.172;2023-08-30T11:06:21;97919.84;;;37.85;22.24
73103;BME280;61294;65.988;29.172;2023-08-30T11:08:47;97911.19;;;38.52;21.15
73103;BME280;61294;65.988;29.172;2023-08-30T11:11:15;97913.13;;;36.05;24.34
73103;BME280;61294;65.988;29.172;2023-08-30T11:13:41;97915.34;;;34.31;27.03
73103;BME280;61294;65.988;29.172;2023-08-30T11:16:07;97924.34;;;37.64;24.89
73103;BME280;61294;65.988;29.172;2023-08-30T11:18:39;97917.06;;;37.13;23.98
73103;BME280;61294;65.988;29.172;2023-08-30T11:21:06;97935.44;;;38.35;22.57
73103;BME280;61294;65.988;29.172;2023-08-30T11:23:33;97926.91;;;32.68;28.38
73103;BME280;61294;65.988;29.172;2023-08-30T11:25:59;97920.19;;;35.84;24.14
73103;BME280;61294;65.988;29.172;2023-08-30T11:28:28;97925.31;;;36.62;24.02
73103;BME280;61294;65.988;29.172;2023-08-30T11:30:54;97924.94;;;33.03;26.93
73103;BME280;61294;65.988;29.172;2023-08-30T11:33:23;97904.88;;;34.43;25.62
73103;BME280;61294;65.988;29.172;2023-08-30T11:35:50;97925.97;;;34.97;24.92
73103;BME280;61294;65.988;29.172;2023-08-30T11:38:18;97916.22;;;38.41;21.76
73103;BME280;61294;65.988;29.172;2023-08-30T11:40:45;97924.22;;;39.53;21.11
73103;BME280;61294;65.988;29.172;2023-08-30T11:43:11;97920.94;;;39.03;19.44
73103;BME280;61294;65.988;29.172;2023-08-30T11:45:36;97929.06;;;40.97;19.32
73103;BME280;61294;65.988;29.172;2023-08-30T11:48:03;97918.41;;;40.55;20.82
73103;BME280;61294;65.988;29.172;2023-08-30T11:50:29;97919.09;;;40.30;18.19
73103;BME280;61294;65.988;29.172;2023-08-30T11:52:55;97907.44;;;40.87;18.34
73103;BME280;61294;65.988;29.172;2023-08-30T11:55:21;97913.13;;;38.51;21.46
73103;BME280;61294;65.988;29.172;2023-08-30T11:57:50;97918.03;;;36.54;24.15
73103;BME280;61294;65.988;29.172;2023-08-30T12:00:19;97915.53;;;41.20;20.64
73103;BME280;61294;65.988;29.172;2023-08-30T12:02:48;97885.78;;;33.37;25.14
73103;BME280;61294;65.988;29.172;2023-08-30T12:05:14;97905.38;;;29.39;30.14
73103;BME280;61294;65.988;29.172;2023-08-30T12:07:40;97895.78;;;33.94;27.71
73103;BME280;61294;65.988;29.172;2023-08-30T12:10:07;97900.13;;;35.31;25.13
73103;BME280;61294;65.988;29.172;2023-08-30T12:12:33;97910.84;;;39.43;22.25
73103;BME280;61294;65.988;29.172;2023-08-30T12:15:10;97912.06;;;37.17;24.10
73103;BME280;61294;65.988;29.172;2023-08-30T12:17:36;97920.59;;;37.07;24.13
73103;BME280;61294;65.988;29.172;2023-08-30T12:20:02;97912.69;;;38.54;23.14
73103;BME280;61294;65.988;29.172;2023-08-30T12:22:41;97902.09;;;38.16;22.73
73103;BME280;61294;65.988;29.172;2023-08-30T12:25:27;97903.47;;;38.33;21.39
73103;BME280;61294;65.988;29.172;2023-08-30T12:27:54;97905.66;;;40.61;20.92
73103;BME280;61294;65.988;29.172;2023-08-30T12:30:20;97902.59;;;34.06;25.94
73103;BME280;61294;65.988;29.172;2023-08-30T12:32:46;97894.41;;;29.98;30.24
73103;BME280;61294;65.988;29.172;2023-08-30T12:35:12;97909.50;;;28.34;33.23
73103;BME280;61294;65.988;29.172;2023-08-30T12:37:38;97909.34;;;29.15;32.76
73103;BME280;61294;65.988;29.172;2023-08-30T12:40:04;97911.16;;;33.21;27.49
73103;BME280;61294;65.988;29.172;2023-08-30T12:42:31;97908.25;;;38.53;23.57
73103;BME280;61294;65.988;29.172;2023-08-30T12:44:57;97879.31;;;33.38;25.73
73103;BME280;61294;65.988;29.172;2023-08-30T12:47:23;97880.69;;;29.32;30.45
73103;BME280;61294;65.988;29.172;2023-08-30T12:49:48;97883.31;;;28.54;31.36
73103;BME280;61294;65.988;29.172;2023-08-30T12:52:14;97892.16;;;27.21;34.47